createdAt,value
2017-05-17T00:01:08.297Z,1019.81
2017-05-17T00:02:18.208Z,1019.83
2017-05-17T00:03:28.130Z,1019.82
2017-05-17T00:04:38.044Z,1019.79
2017-05-17T00:05:48.274Z,1019.77
2017-05-17T00:06:58.499Z,1019.76
2017-05-17T00:08:08.100Z,1019.75
2017-05-17T00:09:17.701Z,1019.74
2017-05-17T00:10:27.921Z,1019.69
2017-05-17T00:11:37.535Z,1019.74
2017-05-17T00:12:47.453Z,1019.69
2017-05-17T00:13:57.676Z,1019.71
2017-05-17T00:15:07.290Z,1019.72
2017-05-17T00:16:17.574Z,1019.67
2017-05-17T00:17:27.485Z,1019.7
2017-05-17T00:18:37.096Z,1019.65
2017-05-17T00:19:47.015Z,1019.68
2017-05-17T00:20:57.244Z,1019.67
2017-05-17T00:22:07.180Z,1019.67
2017-05-17T00:23:17.398Z,1019.68
2017-05-17T00:24:27.305Z,1019.68
2017-05-17T00:25:36.911Z,1019.67
2017-05-17T00:26:47.136Z,1019.66
2017-05-17T00:27:56.759Z,1019.62
2017-05-17T00:29:06.978Z,1019.65
2017-05-17T00:30:16.895Z,1019.62
2017-05-17T00:31:26.820Z,1019.63
2017-05-17T00:32:36.789Z,1019.63
2017-05-17T00:33:46.721Z,1019.6
2017-05-17T00:34:56.643Z,1019.59
2017-05-17T00:36:06.253Z,1019.6
2017-05-17T00:37:16.178Z,1019.58
2017-05-17T00:38:25.808Z,1019.56
2017-05-17T00:39:36.021Z,1019.56
2017-05-17T00:40:46.243Z,1019.53
2017-05-17T00:41:56.526Z,1019.55
2017-05-17T00:43:06.136Z,1019.55
2017-05-17T00:44:15.729Z,1019.53
2017-05-17T00:45:25.036Z,1019.5
2017-05-17T00:46:34.967Z,1019.51
2017-05-17T00:47:45.183Z,1019.46
2017-05-17T00:48:55.404Z,1019.47
2017-05-17T00:50:05.669Z,1019.45
2017-05-17T00:51:15.308Z,1019.46
2017-05-17T00:52:25.222Z,1019.43
2017-05-17T00:53:35.128Z,1019.39
2017-05-17T00:54:45.341Z,1019.41
2017-05-17T00:55:55.559Z,1019.41
2017-05-17T00:57:05.473Z,1019.4
2017-05-17T00:58:15.395Z,1019.38
2017-05-17T00:59:25.622Z,1019.4
2017-05-17T01:00:35.535Z,1019.42
2017-05-17T01:01:45.769Z,1019.4
2017-05-17T01:02:56.373Z,1019.37
2017-05-17T01:04:06.276Z,1019.37
2017-05-17T01:05:16.494Z,1019.38
2017-05-17T01:06:26.413Z,1019.35
2017-05-17T01:07:36.041Z,1019.35
2017-05-17T01:08:45.340Z,1019.33
2017-05-17T01:09:55.591Z,1019.35
2017-05-17T01:11:04.894Z,1019.31
2017-05-17T01:12:14.814Z,1019.34
2017-05-17T01:13:25.050Z,1019.32
2017-05-17T01:14:34.367Z,1019.32
2017-05-17T01:15:43.974Z,1019.27
2017-05-17T01:16:53.907Z,1019.25
2017-05-17T01:18:03.822Z,1019.24
2017-05-17T01:19:14.043Z,1019.23
2017-05-17T01:20:23.955Z,1019.2
2017-05-17T01:21:34.181Z,1019.15
2017-05-17T01:22:44.407Z,1019.17
2017-05-17T01:23:54.623Z,1019.16
2017-05-17T01:25:04.539Z,1019.14
2017-05-17T01:26:14.131Z,1019.17
2017-05-17T01:27:24.040Z,1019.13
2017-05-17T01:28:33.655Z,1019.12
2017-05-17T01:29:43.575Z,1019.1
2017-05-17T01:30:53.498Z,1019.14
2017-05-17T01:32:03.108Z,1019.09
2017-05-17T01:33:13.483Z,1019.12
2017-05-17T01:34:23.719Z,1019.12
2017-05-17T01:35:33.930Z,1019.13
2017-05-17T01:36:44.158Z,1019.14
2017-05-17T01:37:54.383Z,1019.1
2017-05-17T01:39:04.309Z,1019.1
2017-05-17T01:40:14.281Z,1019.1
2017-05-17T01:41:24.561Z,1019.08
2017-05-17T01:42:34.783Z,1019.1
2017-05-17T01:43:44.697Z,1019.1
2017-05-17T01:44:54.626Z,1019.06
2017-05-17T01:46:04.549Z,1019.07
2017-05-17T01:47:14.480Z,1019.03
2017-05-17T01:48:24.419Z,1019.04
2017-05-17T01:49:34.355Z,1019.03
2017-05-17T01:50:44.269Z,1019.01
2017-05-17T01:51:54.512Z,1019
2017-05-17T01:53:04.729Z,1018.99
2017-05-17T01:54:14.979Z,1018.96
2017-05-17T01:55:24.902Z,1019
2017-05-17T01:56:34.209Z,1018.96
2017-05-17T01:57:44.138Z,1018.99
2017-05-17T01:58:54.357Z,1018.98
2017-05-17T02:00:04.272Z,1019
2017-05-17T02:01:14.199Z,1018.97
2017-05-17T02:02:24.148Z,1018.95
2017-05-17T02:03:33.146Z,1018.94
2017-05-17T02:04:42.758Z,1018.92
2017-05-17T02:05:52.974Z,1018.97
2017-05-17T02:07:02.884Z,1018.94
2017-05-17T02:08:13.102Z,1018.95
2017-05-17T02:09:23.720Z,1018.91
2017-05-17T02:10:33.939Z,1018.88
2017-05-17T02:11:43.847Z,1018.88
2017-05-17T02:12:53.501Z,1018.86
2017-05-17T02:14:02.866Z,1018.84
2017-05-17T02:15:12.169Z,1018.84
2017-05-17T02:16:21.764Z,1018.78
2017-05-17T02:17:31.664Z,1018.8
2017-05-17T02:18:41.283Z,1018.78
2017-05-17T02:19:51.193Z,1018.76
2017-05-17T02:21:00.805Z,1018.8
2017-05-17T02:22:10.716Z,1018.79
2017-05-17T02:23:20.012Z,1018.81
2017-05-17T02:24:29.930Z,1018.81
2017-05-17T02:25:39.898Z,1018.75
2017-05-17T02:26:49.815Z,1018.79
2017-05-17T02:27:59.124Z,1018.75
2017-05-17T02:29:09.027Z,1018.73
2017-05-17T02:30:18.939Z,1018.73
2017-05-17T02:31:28.894Z,1018.71
2017-05-17T02:32:39.164Z,1018.67
2017-05-17T02:33:49.394Z,1018.68
2017-05-17T02:34:59.617Z,1018.67
2017-05-17T02:36:09.538Z,1018.67
2017-05-17T02:37:19.474Z,1018.64
2017-05-17T02:38:29.079Z,1018.68
2017-05-17T02:39:39.004Z,1018.66
2017-05-17T02:40:49.301Z,1018.67
2017-05-17T02:41:58.615Z,1018.65
2017-05-17T02:43:08.522Z,1018.63
2017-05-17T02:44:18.441Z,1018.66
2017-05-17T02:45:28.670Z,1018.6
2017-05-17T02:46:37.981Z,1018.64
2017-05-17T02:47:47.594Z,1018.65
2017-05-17T02:48:57.813Z,1018.63
2017-05-17T02:50:07.420Z,1018.6
2017-05-17T02:51:17.333Z,1018.62
2017-05-17T02:52:27.244Z,1018.58
2017-05-17T02:53:37.490Z,1018.59
2017-05-17T02:54:47.444Z,1018.6
2017-05-17T02:55:57.077Z,1018.59
2017-05-17T02:57:06.987Z,1018.62
2017-05-17T02:58:16.907Z,1018.61
2017-05-17T02:59:27.133Z,1018.57
2017-05-17T03:00:37.039Z,1018.6
2017-05-17T03:01:46.947Z,1018.6
2017-05-17T03:02:57.170Z,1018.58
2017-05-17T03:04:07.402Z,1018.58
2017-05-17T03:05:17.332Z,1018.61
2017-05-17T03:06:27.240Z,1018.59
2017-05-17T03:07:37.165Z,1018.62
2017-05-17T03:08:46.769Z,1018.56
2017-05-17T03:09:56.374Z,1018.57
2017-05-17T03:11:06.586Z,1018.56
2017-05-17T03:12:16.513Z,1018.54
2017-05-17T03:13:26.735Z,1018.56
2017-05-17T03:14:36.962Z,1018.54
2017-05-17T03:15:47.180Z,1018.51
2017-05-17T03:16:56.792Z,1018.52
2017-05-17T03:18:06.706Z,1018.47
2017-05-17T03:19:16.009Z,1018.47
2017-05-17T03:20:25.937Z,1018.47
2017-05-17T03:21:35.856Z,1018.46
2017-05-17T03:22:46.066Z,1018.43
2017-05-17T03:23:56.280Z,1018.42
2017-05-17T03:25:06.505Z,1018.42
2017-05-17T03:26:16.734Z,1018.41
2017-05-17T03:27:26.954Z,1018.42
2017-05-17T03:28:36.878Z,1018.43
2017-05-17T03:29:46.792Z,1018.41
2017-05-17T03:30:57.033Z,1018.41
2017-05-17T03:32:06.358Z,1018.43
2017-05-17T03:33:16.277Z,1018.45
2017-05-17T03:34:26.197Z,1018.46
2017-05-17T03:35:36.422Z,1018.42
2017-05-17T03:36:46.693Z,1018.4
2017-05-17T03:37:56.930Z,1018.38
2017-05-17T03:39:07.141Z,1018.42
2017-05-17T03:40:17.067Z,1018.39
2017-05-17T03:41:27.292Z,1018.38
2017-05-17T03:42:36.908Z,1018.39
2017-05-17T03:43:47.120Z,1018.35
2017-05-17T03:44:57.046Z,1018.37
2017-05-17T03:46:06.877Z,1018.36
2017-05-17T03:47:16.793Z,1018.36
2017-05-17T03:48:26.705Z,1018.33
2017-05-17T03:49:36.327Z,1018.33
2017-05-17T03:50:46.592Z,1018.33
2017-05-17T03:51:56.188Z,1018.3
2017-05-17T03:53:05.838Z,1018.33
2017-05-17T03:54:16.122Z,1018.32
2017-05-17T03:55:26.029Z,1018.32
2017-05-17T03:56:36.238Z,1018.34
2017-05-17T03:57:46.147Z,1018.35
2017-05-17T03:58:56.068Z,1018.35
2017-05-17T04:00:05.997Z,1018.35
2017-05-17T04:01:15.613Z,1018.39
2017-05-17T04:02:25.252Z,1018.35
2017-05-17T04:03:35.161Z,1018.36
2017-05-17T04:04:45.074Z,1018.35
2017-05-17T04:05:55.009Z,1018.34
2017-05-17T04:07:04.940Z,1018.34
2017-05-17T04:08:14.887Z,1018.32
2017-05-17T04:09:24.806Z,1018.33
2017-05-17T04:10:35.051Z,1018.31
2017-05-17T04:11:44.965Z,1018.32
2017-05-17T04:12:55.202Z,1018.32
2017-05-17T04:14:05.123Z,1018.34
2017-05-17T04:15:15.088Z,1018.29
2017-05-17T04:16:25.081Z,1018.34
2017-05-17T04:17:35.321Z,1018.3
2017-05-17T04:18:45.238Z,1018.29
2017-05-17T04:19:55.497Z,1018.33
2017-05-17T04:21:05.401Z,1018.32
2017-05-17T04:22:15.649Z,1018.27
2017-05-17T04:23:25.583Z,1018.29
2017-05-17T04:24:35.207Z,1018.27
2017-05-17T04:25:45.456Z,1018.32
2017-05-17T04:26:55.377Z,1018.29
2017-05-17T04:28:05.612Z,1018.3
2017-05-17T04:29:15.818Z,1018.29
2017-05-17T04:30:26.033Z,1018.32
2017-05-17T04:31:36.256Z,1018.33
2017-05-17T04:32:46.478Z,1018.34
2017-05-17T04:33:56.494Z,1018.32
2017-05-17T04:35:06.095Z,1018.32
2017-05-17T04:36:15.692Z,1018.34
2017-05-17T04:37:25.911Z,1018.36
2017-05-17T04:38:36.206Z,1018.34
2017-05-17T04:39:46.428Z,1018.34
2017-05-17T04:40:56.667Z,1018.3
2017-05-17T04:42:05.969Z,1018.32
2017-05-17T04:43:15.269Z,1018.3
2017-05-17T04:44:25.501Z,1018.32
2017-05-17T04:45:35.434Z,1018.3
2017-05-17T04:46:46.049Z,1018.3
2017-05-17T04:47:55.995Z,1018.29
2017-05-17T04:49:05.620Z,1018.3
2017-05-17T04:50:14.909Z,1018.28
2017-05-17T04:51:24.589Z,1018.27
2017-05-17T04:52:34.503Z,1018.31
2017-05-17T04:53:43.513Z,1018.31
2017-05-17T04:54:53.727Z,1018.27
2017-05-17T04:56:03.645Z,1018.29
2017-05-17T04:57:13.366Z,1018.27
2017-05-17T04:58:23.317Z,1018.3
2017-05-17T04:59:32.659Z,1018.31
2017-05-17T05:00:42.896Z,1018.26
2017-05-17T05:01:52.824Z,1018.26
2017-05-17T05:03:02.751Z,1018.25
2017-05-17T05:04:12.719Z,1018.26
2017-05-17T05:05:22.404Z,1018.29
2017-05-17T05:06:32.685Z,1018.27
2017-05-17T05:07:43.044Z,1018.23
2017-05-17T05:08:53.005Z,1018.2
2017-05-17T05:10:03.251Z,1018.23
2017-05-17T05:11:12.876Z,1018.21
2017-05-17T05:12:23.114Z,1018.21
2017-05-17T05:13:33.042Z,1018.22
2017-05-17T05:14:43.322Z,1018.18
2017-05-17T05:15:52.973Z,1018.21
2017-05-17T05:17:02.963Z,1018.21
2017-05-17T05:18:12.913Z,1018.24
2017-05-17T05:19:22.876Z,1018.24
2017-05-17T05:20:32.809Z,1018.23
2017-05-17T05:21:43.072Z,1018.2
2017-05-17T05:22:53.684Z,1018.24
2017-05-17T05:24:03.621Z,1018.19
2017-05-17T05:25:12.938Z,1018.23
2017-05-17T05:26:22.886Z,1018.2
2017-05-17T05:27:32.528Z,1018.2
2017-05-17T05:28:42.159Z,1018.16
2017-05-17T05:29:52.387Z,1018.19
2017-05-17T05:31:02.384Z,1018.21
2017-05-17T05:32:12.626Z,1018.18
2017-05-17T05:33:22.234Z,1018.22
2017-05-17T05:34:32.462Z,1018.22
2017-05-17T05:35:42.132Z,1018.18
2017-05-17T05:36:52.048Z,1018.19
2017-05-17T05:38:02.279Z,1018.12
2017-05-17T05:39:12.208Z,1018.14
2017-05-17T05:40:21.863Z,1018.14
2017-05-17T05:41:32.137Z,1018.15
2017-05-17T05:42:42.385Z,1018.07
2017-05-17T05:43:52.319Z,1018.06
2017-05-17T05:45:02.228Z,1018.07
2017-05-17T05:46:12.435Z,1018.08
2017-05-17T05:47:22.358Z,1018.09
2017-05-17T05:48:32.285Z,1018.06
2017-05-17T05:49:42.252Z,1018.06
2017-05-17T05:50:52.227Z,1018.31
2017-05-17T05:52:02.155Z,1018.06
2017-05-17T05:53:12.097Z,1018.05
2017-05-17T05:54:22.351Z,1018.04
2017-05-17T05:55:32.611Z,1017.99
2017-05-17T05:56:42.560Z,1017.95
2017-05-17T05:57:52.533Z,1017.92
2017-05-17T05:59:02.467Z,1017.93
2017-05-17T06:00:11.793Z,1017.91
2017-05-17T06:01:21.741Z,1017.93
2017-05-17T06:02:31.375Z,1017.92
2017-05-17T06:03:41.038Z,1017.91
2017-05-17T06:04:51.281Z,1017.88
2017-05-17T06:06:01.224Z,1017.89
2017-05-17T06:07:10.540Z,1017.93
2017-05-17T06:08:19.244Z,1017.9
2017-05-17T06:09:28.872Z,1017.91
2017-05-17T06:10:39.100Z,1017.91
2017-05-17T06:11:49.042Z,1017.87
2017-05-17T06:12:59.328Z,1017.88
2017-05-17T06:14:09.279Z,1017.88
2017-05-17T06:15:18.919Z,1017.86
2017-05-17T06:16:28.850Z,1017.91
2017-05-17T06:17:38.537Z,1017.84
2017-05-17T06:18:48.777Z,1017.8
2017-05-17T06:19:58.708Z,1017.81
2017-05-17T06:21:08.014Z,1017.79
2017-05-17T06:22:18.248Z,1017.83
2017-05-17T06:23:28.187Z,1017.77
2017-05-17T06:24:38.112Z,1017.78
2017-05-17T06:25:48.390Z,1017.78
2017-05-17T06:26:58.021Z,1017.78
2017-05-17T06:28:07.978Z,1017.78
2017-05-17T06:29:18.228Z,1017.8
2017-05-17T06:30:28.488Z,1017.76
2017-05-17T06:31:38.432Z,1017.79
2017-05-17T06:32:48.390Z,1017.76
2017-05-17T06:33:58.326Z,1017.75
2017-05-17T06:35:08.579Z,1017.73
2017-05-17T06:36:18.819Z,1017.73
2017-05-17T06:37:28.445Z,1017.71
2017-05-17T06:38:38.433Z,1017.72
2017-05-17T06:39:48.370Z,1017.71
2017-05-17T06:40:58.617Z,1017.69
2017-05-17T06:42:08.876Z,1017.7
2017-05-17T06:43:18.807Z,1017.65
2017-05-17T06:44:28.751Z,1017.69
2017-05-17T06:45:38.706Z,1017.71
2017-05-17T06:46:48.957Z,1017.7
2017-05-17T06:47:59.200Z,1017.7
2017-05-17T06:49:09.193Z,1017.66
2017-05-17T06:50:18.827Z,1017.6
2017-05-17T06:51:28.763Z,1017.65
2017-05-17T06:52:38.736Z,1017.64
2017-05-17T06:53:48.986Z,1017.63
2017-05-17T06:54:58.620Z,1017.6
2017-05-17T06:56:08.663Z,1017.6
2017-05-17T06:57:18.591Z,1017.62
2017-05-17T06:58:28.530Z,1017.63
2017-05-17T06:59:38.155Z,1017.58
2017-05-17T07:00:48.392Z,1017.56
2017-05-17T07:01:58.325Z,1017.59
2017-05-17T07:03:08.271Z,1017.58
2017-05-17T07:04:18.531Z,1017.57
2017-05-17T07:05:28.830Z,1017.57
2017-05-17T07:06:39.153Z,1017.55
2017-05-17T07:07:49.393Z,1017.58
2017-05-17T07:08:58.717Z,1017.58
2017-05-17T07:10:08.997Z,1017.56
2017-05-17T07:11:18.685Z,1017.56
2017-05-17T07:12:28.649Z,1017.51
2017-05-17T07:13:38.282Z,1017.53
2017-05-17T07:14:48.237Z,1017.47
2017-05-17T07:15:58.481Z,1017.47
2017-05-17T07:17:08.097Z,1017.46
2017-05-17T07:18:18.029Z,1017.45
2017-05-17T07:19:27.365Z,1017.49
2017-05-17T07:20:36.693Z,1017.48
2017-05-17T07:21:46.943Z,1017.42
2017-05-17T07:22:56.581Z,1017.43
2017-05-17T07:24:06.525Z,1017.42
2017-05-17T07:25:16.539Z,1017.42
2017-05-17T07:26:26.478Z,1017.42
2017-05-17T07:27:36.441Z,1017.39
2017-05-17T07:28:46.073Z,1017.38
2017-05-17T07:29:56.034Z,1017.38
2017-05-17T07:31:05.669Z,1017.36
2017-05-17T07:32:15.934Z,1017.36
2017-05-17T07:33:25.865Z,1017.31
2017-05-17T07:34:36.121Z,1017.32
2017-05-17T07:35:46.081Z,1017.33
2017-05-17T07:36:56.323Z,1017.31
2017-05-17T07:38:06.287Z,1017.3
2017-05-17T07:39:16.538Z,1017.23
2017-05-17T07:40:26.795Z,1017.28
2017-05-17T07:41:36.434Z,1017.27
2017-05-17T07:42:46.082Z,1017.21
2017-05-17T07:43:56.022Z,1017.19
2017-05-17T07:45:05.959Z,1017.22
2017-05-17T07:46:15.594Z,1017.19
2017-05-17T07:47:25.839Z,1017.17
2017-05-17T07:48:35.476Z,1017.22
2017-05-17T07:49:44.822Z,1017.16
2017-05-17T07:50:54.775Z,1017.12
2017-05-17T07:52:05.102Z,1017.11
2017-05-17T07:53:15.065Z,1017.09
2017-05-17T07:54:25.312Z,1017.07
2017-05-17T07:55:35.261Z,1017.07
2017-05-17T07:56:45.211Z,1017.05
2017-05-17T07:57:54.849Z,1017.04
2017-05-17T07:59:04.807Z,1017.01
2017-05-17T08:00:14.459Z,1016.97
2017-05-17T08:01:24.710Z,1016.93
2017-05-17T08:02:34.672Z,1016.96
2017-05-17T08:03:44.320Z,1016.97
2017-05-17T08:04:54.286Z,1016.91
2017-05-17T08:06:03.930Z,1016.92
2017-05-17T08:07:14.182Z,1016.93
2017-05-17T08:08:24.428Z,1016.91
2017-05-17T08:09:34.390Z,1016.85
2017-05-17T08:10:44.022Z,1016.88
2017-05-17T08:11:54.266Z,1016.87
2017-05-17T08:13:04.207Z,1016.86
2017-05-17T08:14:14.462Z,1016.85
2017-05-17T08:15:24.707Z,1016.83
2017-05-17T08:16:34.949Z,1016.83
2017-05-17T08:17:44.906Z,1016.81
2017-05-17T08:18:55.154Z,1016.81
2017-05-17T08:20:04.811Z,1016.78
2017-05-17T08:21:14.152Z,1016.76
2017-05-17T08:22:24.396Z,1016.73
2017-05-17T08:23:34.339Z,1016.69
2017-05-17T08:24:44.285Z,1016.7
2017-05-17T08:25:53.628Z,1016.71
2017-05-17T08:27:03.946Z,1016.62
2017-05-17T08:28:13.899Z,1016.6
2017-05-17T08:29:23.552Z,1016.59
2017-05-17T08:30:33.818Z,1016.57
2017-05-17T08:31:43.489Z,1016.59
2017-05-17T08:32:52.805Z,1016.54
2017-05-17T08:34:03.076Z,1016.52
2017-05-17T08:35:13.005Z,1016.52
2017-05-17T08:36:22.937Z,1016.5
2017-05-17T08:37:32.899Z,1016.5
2017-05-17T08:38:42.545Z,1016.51
2017-05-17T08:39:52.183Z,1016.46
2017-05-17T08:41:02.449Z,1016.48
2017-05-17T08:42:12.099Z,1016.47
2017-05-17T08:43:22.045Z,1016.53
2017-05-17T08:44:32.293Z,1016.5
2017-05-17T08:45:41.924Z,1016.45
2017-05-17T08:46:51.569Z,1016.45
2017-05-17T08:48:01.192Z,1016.44
2017-05-17T08:49:11.127Z,1016.4
2017-05-17T08:50:20.756Z,1016.41
2017-05-17T08:51:30.698Z,1016.41
2017-05-17T08:52:40.625Z,1016.37
2017-05-17T08:53:50.576Z,1016.36
2017-05-17T08:55:00.515Z,1016.29
2017-05-17T08:56:10.141Z,1016.34
2017-05-17T08:57:20.389Z,1016.31
2017-05-17T08:58:30.351Z,1016.32
2017-05-17T08:59:39.973Z,1016.31
2017-05-17T09:00:49.607Z,1016.3
2017-05-17T09:01:59.851Z,1016.29
2017-05-17T09:03:10.099Z,1016.29
2017-05-17T09:04:20.046Z,1016.24
2017-05-17T09:05:30.295Z,1016.19
2017-05-17T09:06:39.928Z,1016.2
2017-05-17T09:07:50.202Z,1016.19
2017-05-17T09:09:00.142Z,1016.21
2017-05-17T09:10:10.391Z,1016.15
2017-05-17T09:11:20.025Z,1016.15
2017-05-17T09:12:30.275Z,1016.08
2017-05-17T09:13:39.676Z,1016.04
2017-05-17T09:14:49.299Z,1016.03
2017-05-17T09:15:59.619Z,1016
2017-05-17T09:17:09.566Z,1015.97
2017-05-17T09:18:18.891Z,1016.03
2017-05-17T09:19:29.147Z,1015.94
2017-05-17T09:20:39.401Z,1016
2017-05-17T09:21:49.027Z,1015.95
2017-05-17T09:22:58.656Z,1015.98
2017-05-17T09:24:08.278Z,1015.9
2017-05-17T09:25:17.616Z,1015.83
2017-05-17T09:26:27.252Z,1015.89
2017-05-17T09:27:37.504Z,1015.87
2017-05-17T09:28:47.442Z,1015.84
2017-05-17T09:29:57.408Z,1015.82
2017-05-17T09:31:07.035Z,1015.85
2017-05-17T09:32:16.968Z,1015.79
2017-05-17T09:33:25.975Z,1015.84
2017-05-17T09:34:35.607Z,1015.77
2017-05-17T09:35:44.945Z,1015.75
2017-05-17T09:36:55.197Z,1015.75
2017-05-17T09:38:05.162Z,1015.75
2017-05-17T09:39:15.098Z,1015.69
2017-05-17T09:40:25.369Z,1015.71
2017-05-17T09:41:34.994Z,1015.74
2017-05-17T09:42:44.629Z,1015.62
2017-05-17T09:43:54.887Z,1015.66
2017-05-17T09:45:04.826Z,1015.67
2017-05-17T09:46:14.775Z,1015.61
2017-05-17T09:47:25.055Z,1015.57
2017-05-17T09:48:34.750Z,1015.57
2017-05-17T09:49:44.713Z,1015.49
2017-05-17T09:50:54.681Z,1015.47
2017-05-17T09:52:04.941Z,1015.46
2017-05-17T09:53:14.258Z,1015.45
2017-05-17T09:54:24.529Z,1015.41
2017-05-17T09:55:34.453Z,1015.36
2017-05-17T09:56:44.705Z,1015.35
2017-05-17T09:57:54.663Z,1015.41
2017-05-17T09:59:04.278Z,1015.35
2017-05-17T10:00:14.567Z,1015.25
2017-05-17T10:01:24.501Z,1015.3
2017-05-17T10:02:34.457Z,1015.25
2017-05-17T10:03:44.702Z,1015.19
2017-05-17T10:04:54.047Z,1015.23
2017-05-17T10:06:03.985Z,1015.2
2017-05-17T10:07:13.905Z,1015.15
2017-05-17T10:08:24.138Z,1015.18
2017-05-17T10:09:33.774Z,1015.11
2017-05-17T10:10:43.780Z,1015.11
2017-05-17T10:11:53.428Z,1015.09
2017-05-17T10:13:03.365Z,1015.08
2017-05-17T10:14:13.315Z,1015.05
2017-05-17T10:15:22.633Z,1015
2017-05-17T10:16:32.889Z,1014.99
2017-05-17T10:17:42.518Z,1014.93
2017-05-17T10:18:52.859Z,1014.93
2017-05-17T10:20:03.123Z,1014.92
2017-05-17T10:21:12.482Z,1014.89
2017-05-17T10:22:22.453Z,1014.87
2017-05-17T10:23:32.398Z,1014.88
2017-05-17T10:24:42.031Z,1014.78
2017-05-17T10:25:52.302Z,1014.79
2017-05-17T10:27:02.242Z,1014.77
2017-05-17T10:28:12.184Z,1014.79
2017-05-17T10:29:22.122Z,1014.74
2017-05-17T10:30:31.469Z,1014.71
2017-05-17T10:31:41.427Z,1014.67
2017-05-17T10:32:50.761Z,1014.66
2017-05-17T10:34:00.718Z,1014.68
2017-05-17T10:35:10.038Z,1014.59
2017-05-17T10:36:19.387Z,1014.6
2017-05-17T10:37:29.001Z,1014.61
2017-05-17T10:38:39.232Z,1014.52
2017-05-17T10:39:49.180Z,1014.55
2017-05-17T10:40:59.440Z,1014.53
2017-05-17T10:42:09.362Z,1014.55
2017-05-17T10:43:18.993Z,1014.48
2017-05-17T10:44:28.622Z,1014.45
2017-05-17T10:45:38.872Z,1014.5
2017-05-17T10:46:48.194Z,1014.45
2017-05-17T10:47:58.442Z,1014.4
2017-05-17T10:49:08.073Z,1014.43
2017-05-17T10:50:17.395Z,1014.4
2017-05-17T10:51:27.337Z,1014.3
2017-05-17T10:52:37.584Z,1014.35
2017-05-17T10:53:47.526Z,1014.34
2017-05-17T10:54:57.464Z,1014.32
2017-05-17T10:56:07.396Z,1014.41
2017-05-17T10:57:17.023Z,1014.31
2017-05-17T10:58:26.645Z,1014.3
2017-05-17T10:59:36.578Z,1014.23
2017-05-17T11:00:46.228Z,1014.25
2017-05-17T11:01:55.904Z,1014.21
2017-05-17T11:03:05.232Z,1014.23
2017-05-17T11:04:15.167Z,1014.17
2017-05-17T11:05:25.141Z,1014.18
2017-05-17T11:06:35.141Z,1014.1
2017-05-17T11:07:44.164Z,1014.09
2017-05-17T11:08:54.408Z,1014.15
2017-05-17T11:10:04.360Z,1014.1
2017-05-17T11:11:13.981Z,1014.14
2017-05-17T11:12:23.912Z,1014.05
2017-05-17T11:13:33.560Z,1014.06
2017-05-17T11:14:43.811Z,1014.01
2017-05-17T11:15:54.057Z,1014.02
2017-05-17T11:17:03.685Z,1013.96
2017-05-17T11:18:13.611Z,1013.97
2017-05-17T11:19:23.837Z,1014.01
2017-05-17T11:20:34.076Z,1013.96
2017-05-17T11:21:44.015Z,1013.93
2017-05-17T11:22:53.945Z,1013.94
2017-05-17T11:24:03.601Z,1013.9
2017-05-17T11:25:13.862Z,1013.9
2017-05-17T11:26:24.101Z,1013.85
2017-05-17T11:27:33.715Z,1013.79
2017-05-17T11:28:43.969Z,1013.86
2017-05-17T11:29:54.215Z,1013.87
2017-05-17T11:31:03.544Z,1013.84
2017-05-17T11:32:13.789Z,1013.88
2017-05-17T11:33:23.435Z,1013.75
2017-05-17T11:34:33.381Z,1013.9
2017-05-17T11:35:43.651Z,1013.83
2017-05-17T11:36:53.932Z,1013.87
2017-05-17T11:38:03.894Z,1013.76
2017-05-17T11:39:13.897Z,1013.7
2017-05-17T11:40:23.849Z,1013.71
2017-05-17T11:41:33.786Z,1013.75
2017-05-17T11:42:44.028Z,1013.67
2017-05-17T11:43:53.964Z,1013.64
2017-05-17T11:45:03.904Z,1013.63
2017-05-17T11:46:14.158Z,1013.61
2017-05-17T11:47:24.122Z,1013.57
2017-05-17T11:48:34.072Z,1013.55
2017-05-17T11:49:44.013Z,1013.54
2017-05-17T11:50:53.943Z,1013.57
2017-05-17T11:52:04.165Z,1013.67
2017-05-17T11:53:14.087Z,1013.48
2017-05-17T11:54:24.713Z,1013.48
2017-05-17T11:55:34.344Z,1013.48
2017-05-17T11:56:44.580Z,1013.48
2017-05-17T11:57:54.235Z,1013.44
2017-05-17T11:59:04.171Z,1013.41
2017-05-17T12:00:14.103Z,1013.4
2017-05-17T12:01:24.065Z,1013.44
2017-05-17T12:02:33.704Z,1013.46
2017-05-17T12:03:43.047Z,1013.37
2017-05-17T12:04:53.274Z,1013.39
2017-05-17T12:06:02.892Z,1013.39
2017-05-17T12:07:12.818Z,1013.37
2017-05-17T12:08:22.448Z,1013.34
2017-05-17T12:09:32.381Z,1013.31
2017-05-17T12:10:42.612Z,1013.33
2017-05-17T12:11:51.952Z,1013.31
2017-05-17T12:13:02.183Z,1013.28
2017-05-17T12:14:12.126Z,1013.28
2017-05-17T12:15:22.368Z,1013.24
2017-05-17T12:16:32.333Z,1013.23
2017-05-17T12:17:42.572Z,1013.14
2017-05-17T12:18:52.823Z,1013.2
2017-05-17T12:20:02.772Z,1013.15
2017-05-17T12:21:12.715Z,1013.11
2017-05-17T12:22:22.956Z,1013.11
2017-05-17T12:23:32.901Z,1013.07
2017-05-17T12:24:43.174Z,1013.13
2017-05-17T12:25:52.802Z,1013.08
2017-05-17T12:27:02.748Z,1013.08
2017-05-17T12:28:12.387Z,1013.1
2017-05-17T12:29:21.730Z,1013.05
2017-05-17T12:30:31.670Z,1013.04
2017-05-17T12:31:41.600Z,1012.96
2017-05-17T12:32:51.523Z,1013.03
2017-05-17T12:34:01.155Z,1013.05
2017-05-17T12:35:11.093Z,1013.03
2017-05-17T12:36:20.716Z,1012.98
2017-05-17T12:37:30.650Z,1012.98
2017-05-17T12:38:40.282Z,1012.99
2017-05-17T12:39:50.285Z,1012.99
2017-05-17T12:41:00.225Z,1012.89
2017-05-17T12:42:10.465Z,1012.93
2017-05-17T12:43:20.388Z,1012.85
2017-05-17T12:44:30.630Z,1012.86
2017-05-17T12:45:40.559Z,1012.86
2017-05-17T12:46:50.798Z,1012.81
2017-05-17T12:48:00.755Z,1012.78
2017-05-17T12:49:10.682Z,1012.8
2017-05-17T12:50:20.315Z,1012.78
2017-05-17T12:51:30.256Z,1012.71
2017-05-17T12:52:40.215Z,1012.7
2017-05-17T12:53:50.153Z,1012.63
2017-05-17T12:54:59.786Z,1012.63
2017-05-17T12:56:09.715Z,1012.67
2017-05-17T12:57:19.032Z,1012.62
2017-05-17T12:58:28.666Z,1012.61
2017-05-17T12:59:38.939Z,1012.57
2017-05-17T13:00:48.883Z,1012.49
2017-05-17T13:01:58.504Z,1012.52
2017-05-17T13:03:08.140Z,1012.6
2017-05-17T13:04:17.772Z,1012.51
2017-05-17T13:05:28.007Z,1012.44
2017-05-17T13:06:38.261Z,1012.39
2017-05-17T13:07:48.497Z,1012.37
2017-05-17T13:08:57.823Z,1012.33
2017-05-17T13:10:07.454Z,1012.28
2017-05-17T13:11:16.769Z,1012.26
2017-05-17T13:12:27.015Z,1012.26
2017-05-17T13:13:37.264Z,1012.24
2017-05-17T13:14:47.520Z,1012.25
2017-05-17T13:15:56.568Z,1012.23
2017-05-17T13:17:06.504Z,1012.18
2017-05-17T13:18:16.754Z,1012.27
2017-05-17T13:19:27.050Z,1012.15
2017-05-17T13:20:36.975Z,1012.14
2017-05-17T13:21:47.226Z,1012.14
2017-05-17T13:22:57.149Z,1012.17
2017-05-17T13:24:07.082Z,1012.08
2017-05-17T13:25:17.012Z,1012.06
2017-05-17T13:26:26.642Z,1012.03
2017-05-17T13:27:36.565Z,1012.01
2017-05-17T13:28:46.503Z,1012.03
2017-05-17T13:29:56.501Z,1012.05
2017-05-17T13:31:06.127Z,1012
2017-05-17T13:32:16.374Z,1011.93
2017-05-17T13:33:26.329Z,1011.9
2017-05-17T13:34:35.975Z,1011.88
2017-05-17T13:35:45.929Z,1011.84
2017-05-17T13:36:55.546Z,1011.87
2017-05-17T13:38:05.793Z,1011.83
2017-05-17T13:39:15.727Z,1011.81
2017-05-17T13:40:25.663Z,1011.83
2017-05-17T13:41:35.617Z,1011.77
2017-05-17T13:42:45.857Z,1011.76
2017-05-17T13:43:55.175Z,1011.75
2017-05-17T13:45:04.815Z,1011.71
2017-05-17T13:46:14.768Z,1011.65
2017-05-17T13:47:24.733Z,1011.6
2017-05-17T13:48:34.067Z,1011.59
2017-05-17T13:49:43.696Z,1011.58
2017-05-17T13:50:53.641Z,1011.6
2017-05-17T13:52:03.596Z,1011.63
2017-05-17T13:53:13.234Z,1011.61
2017-05-17T13:54:23.163Z,1011.64
2017-05-17T13:55:33.418Z,1011.59
2017-05-17T13:56:43.662Z,1011.51
2017-05-17T13:57:53.288Z,1011.49
2017-05-17T13:59:02.927Z,1011.41
2017-05-17T14:00:12.869Z,1011.49
2017-05-17T14:01:22.199Z,1011.46
2017-05-17T14:02:32.184Z,1011.41
2017-05-17T14:03:41.846Z,1011.45
2017-05-17T14:04:51.488Z,1011.36
2017-05-17T14:06:01.740Z,1011.34
2017-05-17T14:07:11.362Z,1011.31
2017-05-17T14:08:21.700Z,1011.3
2017-05-17T14:09:31.939Z,1011.31